createdAt,value
2016-11-21T00:00:34.838Z,0
2016-11-21T00:01:34.847Z,0
2016-11-21T00:02:34.874Z,0
2016-11-21T00:03:34.881Z,0
2016-11-21T00:04:35.223Z,0
2016-11-21T00:05:34.919Z,0
2016-11-21T00:06:34.949Z,0
2016-11-21T00:07:34.958Z,0
2016-11-21T00:08:34.965Z,0
2016-11-21T00:09:34.981Z,0
2016-11-21T00:10:35.018Z,0
2016-11-21T00:11:35.016Z,0
2016-11-21T00:12:35.036Z,0
2016-11-21T00:13:35.041Z,0
2016-11-21T00:14:35.075Z,0
2016-11-21T00:15:35.124Z,0
2016-11-21T00:16:35.108Z,0
2016-11-21T00:17:35.128Z,0
2016-11-21T00:18:35.148Z,0
2016-11-21T00:19:35.155Z,0
2016-11-21T00:20:35.176Z,0
2016-11-21T00:21:35.195Z,0
2016-11-21T00:22:35.211Z,0
2016-11-21T00:23:35.235Z,0
2016-11-21T00:24:35.262Z,0
2016-11-21T00:25:35.258Z,0
2016-11-21T00:26:35.284Z,0
2016-11-21T00:27:35.285Z,0
2016-11-21T00:28:35.328Z,0
2016-11-21T00:29:35.323Z,0
2016-11-21T00:30:35.349Z,0
2016-11-21T00:31:35.355Z,0
2016-11-21T00:32:35.375Z,0
2016-11-21T00:33:35.387Z,0
2016-11-21T00:34:35.428Z,0
2016-11-21T00:35:35.433Z,0
2016-11-21T00:36:35.443Z,0
2016-11-21T00:37:35.454Z,0
2016-11-21T00:38:35.479Z,0
2016-11-21T00:39:35.499Z,0
2016-11-21T00:40:35.838Z,0
2016-11-21T00:41:35.531Z,0
2016-11-21T00:42:35.551Z,0
2016-11-21T00:43:35.557Z,0
2016-11-21T00:44:35.578Z,0
2016-11-21T00:45:35.594Z,0
2016-11-21T00:46:35.623Z,0
2016-11-21T00:47:35.627Z,0
2016-11-21T00:48:35.654Z,0
2016-11-21T00:49:35.657Z,0
2016-11-21T00:50:35.695Z,0
2016-11-21T00:51:35.692Z,0
2016-11-21T00:52:35.745Z,0
2016-11-21T00:53:35.812Z,0
2016-11-21T00:54:35.757Z,0
2016-11-21T00:55:35.756Z,0
2016-11-21T00:56:35.792Z,0
2016-11-21T00:57:35.809Z,0
2016-11-21T00:58:35.834Z,0
2016-11-21T00:59:35.833Z,0
2016-11-21T01:00:35.853Z,0
2016-11-21T01:01:35.867Z,0
2016-11-21T01:02:35.870Z,0
2016-11-21T01:03:35.895Z,0
2016-11-21T01:04:35.921Z,0
2016-11-21T01:05:35.922Z,0
2016-11-21T01:06:35.976Z,0
2016-11-21T01:07:35.975Z,0
2016-11-21T01:08:35.970Z,0
2016-11-21T01:09:35.999Z,0
2016-11-21T01:10:36.012Z,0
2016-11-21T01:11:36.033Z,0
2016-11-21T01:12:36.057Z,0
2016-11-21T01:13:36.064Z,0
2016-11-21T01:14:36.099Z,0
2016-11-21T01:15:36.090Z,0
2016-11-21T01:16:36.116Z,0
2016-11-21T01:17:36.132Z,0
2016-11-21T01:18:36.157Z,0
2016-11-21T01:19:36.153Z,0
2016-11-21T01:20:36.176Z,0
2016-11-21T01:21:36.199Z,0
2016-11-21T01:22:36.217Z,0
2016-11-21T01:23:36.223Z,0
2016-11-21T01:24:36.246Z,0
2016-11-21T01:25:36.261Z,0
2016-11-21T01:26:36.281Z,0
2016-11-21T01:27:36.286Z,0
2016-11-21T01:28:36.315Z,0
2016-11-21T01:29:36.329Z,0
2016-11-21T01:30:36.353Z,0
2016-11-21T01:31:36.360Z,0
2016-11-21T01:32:36.375Z,0
2016-11-21T01:33:36.408Z,0
2016-11-21T01:34:36.419Z,0
2016-11-21T01:35:36.426Z,0
2016-11-21T01:36:36.449Z,0
2016-11-21T01:37:36.473Z,0
2016-11-21T01:38:36.475Z,0
2016-11-21T01:39:36.488Z,0
2016-11-21T01:40:36.518Z,0
2016-11-21T01:41:36.548Z,0
2016-11-21T01:42:36.554Z,0
2016-11-21T01:43:36.559Z,0
2016-11-21T01:44:36.571Z,0
2016-11-21T01:45:36.592Z,0
2016-11-21T01:46:36.951Z,0
2016-11-21T01:47:36.622Z,0
2016-11-21T01:48:36.659Z,0
2016-11-21T01:49:36.678Z,0
2016-11-21T01:50:36.693Z,0
2016-11-21T01:51:36.694Z,0
2016-11-21T01:52:36.713Z,0
2016-11-21T01:53:36.715Z,0
2016-11-21T01:54:36.734Z,0
2016-11-21T01:55:36.757Z,0
2016-11-21T01:56:36.798Z,0
2016-11-21T01:57:36.795Z,0
2016-11-21T01:58:36.815Z,0
2016-11-21T01:59:36.817Z,0
2016-11-21T02:00:36.847Z,0
2016-11-21T02:01:36.861Z,0
2016-11-21T02:02:36.886Z,0
2016-11-21T02:03:36.887Z,0
2016-11-21T02:04:36.921Z,0
2016-11-21T02:05:36.927Z,0
2016-11-21T02:06:36.948Z,0
2016-11-21T02:07:36.954Z,0
2016-11-21T02:08:36.966Z,0
2016-11-21T02:09:36.984Z,0
2016-11-21T02:10:37.011Z,0
2016-11-21T02:11:37.015Z,0
2016-11-21T02:12:37.046Z,0
2016-11-21T02:13:37.052Z,0
2016-11-21T02:14:37.087Z,0
2016-11-21T02:15:37.087Z,0
2016-11-21T02:16:37.123Z,0
2016-11-21T02:17:37.130Z,0
2016-11-21T02:18:37.147Z,0
2016-11-21T02:19:37.161Z,0
2016-11-21T02:20:37.186Z,0
2016-11-21T02:21:37.192Z,0
2016-11-21T02:22:37.219Z,0
2016-11-21T02:23:37.244Z,0
2016-11-21T02:24:37.246Z,0
2016-11-21T02:25:37.253Z,0
2016-11-21T02:26:37.277Z,0
2016-11-21T02:27:37.283Z,0
2016-11-21T02:28:37.327Z,0
2016-11-21T02:29:37.322Z,0
2016-11-21T02:30:37.656Z,0
2016-11-21T02:31:37.349Z,0
2016-11-21T02:32:37.704Z,0
2016-11-21T02:33:37.382Z,0
2016-11-21T02:34:37.410Z,0
2016-11-21T02:35:37.413Z,0
2016-11-21T02:36:37.429Z,0
2016-11-21T02:37:37.450Z,0
2016-11-21T02:38:37.476Z,0
2016-11-21T02:39:37.480Z,0
2016-11-21T02:40:37.840Z,0
2016-11-21T02:41:37.522Z,0
2016-11-21T02:42:37.548Z,0
2016-11-21T02:43:37.559Z,0
2016-11-21T02:44:37.582Z,0
2016-11-21T02:45:37.590Z,0
2016-11-21T02:46:37.614Z,0
2016-11-21T02:47:37.626Z,0
2016-11-21T02:48:37.646Z,0
2016-11-21T02:49:37.665Z,0
2016-11-21T02:50:37.675Z,0
2016-11-21T02:51:37.690Z,0
2016-11-21T02:52:37.705Z,0
2016-11-21T02:53:37.736Z,0
2016-11-21T02:54:37.753Z,0
2016-11-21T02:55:37.744Z,0
2016-11-21T02:56:37.777Z,0
2016-11-21T02:57:37.792Z,0
2016-11-21T02:58:37.814Z,0
2016-11-21T02:59:37.819Z,0
2016-11-21T03:00:37.840Z,0
2016-11-21T03:01:37.860Z,0
2016-11-21T03:02:37.883Z,0
2016-11-21T03:03:37.892Z,0
2016-11-21T03:04:37.906Z,0
2016-11-21T03:05:37.921Z,0
2016-11-21T03:06:38.029Z,0
2016-11-21T03:07:37.965Z,0
2016-11-21T03:08:37.978Z,0
2016-11-21T03:09:37.999Z,0
2016-11-21T03:10:38.105Z,0
2016-11-21T03:11:38.021Z,0
2016-11-21T03:12:38.056Z,0
2016-11-21T03:13:38.059Z,0
2016-11-21T03:14:38.089Z,0
2016-11-21T03:15:38.091Z,0
2016-11-21T03:16:38.121Z,0
2016-11-21T03:17:38.132Z,0
2016-11-21T03:18:38.160Z,0
2016-11-21T03:19:38.157Z,0
2016-11-21T03:20:38.186Z,0
2016-11-21T03:21:38.199Z,0
2016-11-21T03:22:38.566Z,0
2016-11-21T03:23:38.251Z,0
2016-11-21T03:24:38.251Z,0
2016-11-21T03:25:38.265Z,0
2016-11-21T03:26:38.283Z,0
2016-11-21T03:27:38.329Z,0
2016-11-21T03:28:38.324Z,0
2016-11-21T03:29:38.345Z,0
2016-11-21T03:30:38.351Z,0
2016-11-21T03:31:38.360Z,0
2016-11-21T03:32:38.386Z,0
2016-11-21T03:33:38.417Z,0
2016-11-21T03:34:38.423Z,0
2016-11-21T03:35:38.441Z,0
2016-11-21T03:36:38.453Z,0
2016-11-21T03:37:38.477Z,0
2016-11-21T03:38:38.479Z,0
2016-11-21T03:39:38.600Z,0
2016-11-21T03:40:38.522Z,0
2016-11-21T03:41:38.551Z,0
2016-11-21T03:42:38.569Z,0
2016-11-21T03:43:38.577Z,0
2016-11-21T03:44:38.925Z,0
2016-11-21T03:45:38.611Z,0
2016-11-21T03:46:38.635Z,0
2016-11-21T03:47:38.643Z,0
2016-11-21T03:48:38.670Z,0
2016-11-21T03:49:38.683Z,0
2016-11-21T03:50:38.742Z,0
2016-11-21T03:51:38.714Z,0
2016-11-21T03:52:38.728Z,0
2016-11-21T03:53:38.742Z,0
2016-11-21T03:54:38.776Z,0
2016-11-21T03:55:38.782Z,0
2016-11-21T03:56:38.813Z,0
2016-11-21T03:57:38.830Z,0
2016-11-21T03:58:38.931Z,0
2016-11-21T03:59:38.852Z,0
2016-11-21T04:01:38.881Z,0
2016-11-21T04:02:38.900Z,0
2016-11-21T04:03:38.928Z,0
2016-11-21T04:04:38.943Z,0
2016-11-21T04:05:38.956Z,0
2016-11-21T04:06:38.973Z,0
2016-11-21T04:07:39.000Z,0
2016-11-21T04:08:38.997Z,0
2016-11-21T04:09:39.058Z,0
2016-11-21T04:10:39.043Z,0
2016-11-21T04:11:39.053Z,0
2016-11-21T04:12:39.073Z,0
2016-11-21T04:13:39.092Z,0
2016-11-21T04:14:39.113Z,0
2016-11-21T04:15:39.126Z,0
2016-11-21T04:16:39.132Z,0
2016-11-21T04:17:39.166Z,0
2016-11-21T04:18:39.181Z,0
2016-11-21T04:19:39.199Z,0
2016-11-21T04:20:39.214Z,0
2016-11-21T04:21:39.235Z,0
2016-11-21T04:22:39.241Z,0
2016-11-21T04:23:39.258Z,0
2016-11-21T04:24:39.276Z,0
2016-11-21T04:25:39.298Z,0
2016-11-21T04:26:39.308Z,0
2016-11-21T04:27:39.326Z,0
2016-11-21T04:28:39.343Z,0
2016-11-21T04:29:39.369Z,0
2016-11-21T04:30:39.385Z,0
2016-11-21T04:31:39.402Z,0
2016-11-21T04:32:39.418Z,0
2016-11-21T04:33:39.438Z,0
2016-11-21T04:34:39.449Z,0
2016-11-21T04:35:39.465Z,0
2016-11-21T04:36:39.485Z,0
2016-11-21T04:37:39.504Z,0
2016-11-21T04:38:39.524Z,0
2016-11-21T04:39:39.542Z,0
2016-11-21T04:40:39.549Z,0
2016-11-21T04:41:39.574Z,0
2016-11-21T04:42:39.591Z,0
2016-11-21T04:43:39.604Z,0
2016-11-21T04:44:39.624Z,0
2016-11-21T04:45:39.650Z,0
2016-11-21T04:46:39.649Z,0
2016-11-21T04:47:39.678Z,0
2016-11-21T04:48:39.692Z,0
2016-11-21T04:49:39.712Z,0
2016-11-21T04:50:39.723Z,0
2016-11-21T04:51:39.784Z,0
2016-11-21T04:52:39.759Z,0
2016-11-21T04:53:39.785Z,0
2016-11-21T04:54:39.802Z,0
2016-11-21T04:55:39.847Z,0
2016-11-21T04:56:39.829Z,0
2016-11-21T04:57:39.850Z,0
2016-11-21T04:58:39.868Z,0
2016-11-21T04:59:39.883Z,0
2016-11-21T05:00:39.899Z,0
2016-11-21T05:01:39.925Z,0
2016-11-21T05:02:39.941Z,0
2016-11-21T05:03:39.938Z,0
2016-11-21T05:04:39.975Z,0
2016-11-21T05:05:39.981Z,0
2016-11-21T05:06:40.010Z,0
2016-11-21T05:07:40.013Z,0
2016-11-21T05:08:40.038Z,0
2016-11-21T05:09:40.064Z,0
2016-11-21T05:10:40.107Z,0
2016-11-21T05:11:40.091Z,0
2016-11-21T05:12:40.105Z,0
2016-11-21T05:13:40.114Z,0
2016-11-21T05:14:40.143Z,0
2016-11-21T05:15:40.150Z,0
2016-11-21T05:16:40.184Z,0
2016-11-21T05:17:40.193Z,0
2016-11-21T05:18:40.204Z,0
2016-11-21T05:19:40.229Z,0
2016-11-21T05:20:40.250Z,0
2016-11-21T05:21:40.255Z,0
2016-11-21T05:22:40.268Z,0
2016-11-21T05:23:40.293Z,0
2016-11-21T05:24:40.310Z,0
2016-11-21T05:25:40.322Z,0
2016-11-21T05:26:40.351Z,0
2016-11-21T05:27:40.365Z,0
2016-11-21T05:28:40.381Z,0
2016-11-21T05:29:40.419Z,0
2016-11-21T05:30:40.481Z,0
2016-11-21T05:31:40.475Z,0
2016-11-21T05:32:40.436Z,0
2016-11-21T05:33:40.470Z,0
2016-11-21T05:34:40.499Z,0
2016-11-21T05:35:40.503Z,0
2016-11-21T05:36:40.525Z,0
2016-11-21T05:37:40.532Z,0
2016-11-21T05:38:40.566Z,0
2016-11-21T05:39:40.567Z,0
2016-11-21T05:40:40.581Z,0
2016-11-21T05:41:40.614Z,0
2016-11-21T05:42:40.944Z,0
2016-11-21T05:43:40.656Z,0
2016-11-21T05:44:40.659Z,0
2016-11-21T05:45:40.680Z,0
2016-11-21T05:46:40.690Z,0
2016-11-21T05:47:40.710Z,0
2016-11-21T05:48:40.725Z,0
2016-11-21T05:49:40.740Z,0
2016-11-21T05:50:40.756Z,0
2016-11-21T05:51:40.772Z,0
2016-11-21T05:52:40.795Z,0
2016-11-21T05:53:40.804Z,0
2016-11-21T05:54:40.846Z,0
2016-11-21T05:55:40.846Z,0
2016-11-21T05:56:40.861Z,0
2016-11-21T05:57:40.888Z,0
2016-11-21T05:58:40.895Z,0
2016-11-21T05:59:40.910Z,0
2016-11-21T06:00:40.921Z,0
2016-11-21T06:01:40.993Z,0
2016-11-21T06:02:40.961Z,0
2016-11-21T06:03:40.981Z,0
2016-11-21T06:04:40.999Z,0
2016-11-21T06:05:41.023Z,0
2016-11-21T06:06:41.028Z,0
2016-11-21T06:07:41.060Z,0
2016-11-21T06:08:41.053Z,0
2016-11-21T06:09:41.085Z,0
2016-11-21T06:10:41.088Z,0
2016-11-21T06:11:41.113Z,0
2016-11-21T06:12:41.134Z,0
2016-11-21T06:13:41.158Z,0
2016-11-21T06:14:41.170Z,0
2016-11-21T06:15:41.181Z,0
2016-11-21T06:16:41.210Z,0
2016-11-21T06:17:41.242Z,0
2016-11-21T06:18:41.279Z,0
2016-11-21T06:19:41.248Z,0
2016-11-21T06:20:41.278Z,0
2016-11-21T06:21:41.297Z,0
2016-11-21T06:22:41.317Z,0
2016-11-21T06:23:41.334Z,0
2016-11-21T06:24:41.346Z,0
2016-11-21T06:25:41.361Z,0
2016-11-21T06:26:41.371Z,0
2016-11-21T06:27:41.393Z,0
2016-11-21T06:28:41.412Z,4
2016-11-21T06:29:41.450Z,4
2016-11-21T06:30:41.449Z,4
2016-11-21T06:31:41.466Z,0
2016-11-21T06:32:41.571Z,4
2016-11-21T06:33:41.489Z,4
2016-11-21T06:34:41.509Z,8
2016-11-21T06:35:41.534Z,4
2016-11-21T06:36:41.560Z,8
2016-11-21T06:37:41.566Z,8
2016-11-21T06:38:41.587Z,8
2016-11-21T06:39:41.601Z,12
2016-11-21T06:40:41.616Z,12
2016-11-21T06:41:41.633Z,16
2016-11-21T06:42:41.645Z,16
2016-11-21T06:43:41.665Z,16
2016-11-21T06:44:41.691Z,20
2016-11-21T06:45:41.702Z,24
2016-11-21T06:46:41.725Z,24
2016-11-21T06:47:41.738Z,24
2016-11-21T06:48:42.094Z,28
2016-11-21T06:49:41.772Z,24
2016-11-21T06:50:41.801Z,24
2016-11-21T06:51:41.813Z,28
2016-11-21T06:52:41.829Z,28
2016-11-21T06:53:41.844Z,32
2016-11-21T06:54:41.855Z,28
2016-11-21T06:55:41.881Z,28
2016-11-21T06:56:41.884Z,32
2016-11-21T06:57:41.919Z,36
2016-11-21T06:58:41.921Z,40
2016-11-21T06:59:41.950Z,40
2016-11-21T07:00:41.978Z,44
2016-11-21T07:01:41.979Z,48
2016-11-21T07:02:42.003Z,52
2016-11-21T07:03:42.001Z,56
2016-11-21T07:04:42.034Z,60
2016-11-21T07:05:42.050Z,64
2016-11-21T07:06:42.070Z,72
2016-11-21T07:07:42.085Z,80
2016-11-21T07:08:42.102Z,84
2016-11-21T07:09:42.110Z,88
2016-11-21T07:10:42.124Z,96
2016-11-21T07:11:42.158Z,104
2016-11-21T07:12:42.160Z,108
2016-11-21T07:13:42.178Z,116
2016-11-21T07:14:42.203Z,124
2016-11-21T07:15:42.219Z,136
2016-11-21T07:16:42.244Z,144
2016-11-21T07:17:42.250Z,160
2016-11-21T07:18:42.284Z,176
2016-11-21T07:19:42.299Z,188
2016-11-21T07:20:42.411Z,204
2016-11-21T07:21:42.419Z,216
2016-11-21T07:22:42.338Z,228
2016-11-21T07:23:42.363Z,248
2016-11-21T07:24:42.376Z,260
2016-11-21T07:25:42.392Z,276
2016-11-21T07:26:42.409Z,288
2016-11-21T07:27:42.427Z,300
2016-11-21T07:28:42.449Z,308
2016-11-21T07:29:42.465Z,320
2016-11-21T07:30:42.479Z,332
2016-11-21T07:31:42.490Z,336
2016-11-21T07:32:42.518Z,336
2016-11-21T07:33:42.536Z,336
2016-11-21T07:34:42.561Z,336
2016-11-21T07:35:42.568Z,332
2016-11-21T07:36:42.571Z,336
2016-11-21T07:37:42.599Z,340
2016-11-21T07:38:42.609Z,344
2016-11-21T07:39:42.624Z,352
2016-11-21T07:40:42.638Z,364
2016-11-21T07:41:42.668Z,376
2016-11-21T07:42:42.680Z,392
2016-11-21T07:43:42.697Z,408
2016-11-21T07:44:42.718Z,424
2016-11-21T07:45:42.742Z,444
2016-11-21T07:46:42.754Z,468
2016-11-21T07:47:42.769Z,492
2016-11-21T07:48:42.793Z,516
2016-11-21T07:49:42.814Z,540
2016-11-21T07:50:42.818Z,556
2016-11-21T07:51:42.832Z,572
2016-11-21T07:52:42.850Z,584
2016-11-21T07:53:42.879Z,592
2016-11-21T07:54:42.890Z,612
2016-11-21T07:55:42.904Z,620
2016-11-21T07:56:42.937Z,632
2016-11-21T07:57:42.944Z,660
2016-11-21T07:58:42.968Z,688
2016-11-21T07:59:42.983Z,708
2016-11-21T08:00:42.999Z,724
2016-11-21T08:01:43.021Z,728
2016-11-21T08:02:43.053Z,736
2016-11-21T08:03:43.038Z,748
2016-11-21T08:04:43.087Z,748
2016-11-21T08:05:43.077Z,748
2016-11-21T08:06:43.100Z,736
2016-11-21T08:07:43.113Z,712
2016-11-21T08:08:43.156Z,680
2016-11-21T08:09:43.142Z,660
2016-11-21T08:10:43.178Z,648
2016-11-21T08:11:43.195Z,648
2016-11-21T08:12:43.211Z,644
2016-11-21T08:13:43.222Z,648
2016-11-21T08:14:43.251Z,648
2016-11-21T08:15:43.262Z,640
2016-11-21T08:16:43.288Z,628
2016-11-21T08:17:43.300Z,624
2016-11-21T08:18:43.385Z,620
2016-11-21T08:19:43.331Z,620
2016-11-21T08:20:43.363Z,620
2016-11-21T08:21:43.353Z,628
2016-11-21T08:22:43.707Z,628
2016-11-21T08:23:43.397Z,628
2016-11-21T08:24:43.412Z,628
2016-11-21T08:25:43.433Z,628
2016-11-21T08:26:43.465Z,636
2016-11-21T08:27:43.466Z,636
2016-11-21T08:28:43.481Z,636
2016-11-21T08:29:43.502Z,628
2016-11-21T08:30:43.532Z,620
2016-11-21T08:31:43.538Z,616
2016-11-21T08:32:43.559Z,624
2016-11-21T08:33:43.570Z,628
2016-11-21T08:34:43.681Z,624
2016-11-21T08:35:43.612Z,620
2016-11-21T08:36:43.640Z,616
2016-11-21T08:37:43.643Z,628
2016-11-21T08:38:43.692Z,648
2016-11-21T08:39:43.678Z,664
2016-11-21T08:40:43.695Z,680
2016-11-21T08:41:43.711Z,672
2016-11-21T08:42:43.740Z,668
2016-11-21T08:43:43.757Z,664
2016-11-21T08:44:43.768Z,664
2016-11-21T08:45:43.779Z,672
2016-11-21T08:46:43.802Z,680
2016-11-21T08:47:43.832Z,684
2016-11-21T08:48:43.868Z,688
2016-11-21T08:49:43.854Z,700
2016-11-21T08:50:43.871Z,712
2016-11-21T08:51:43.917Z,728
2016-11-21T08:52:43.913Z,760
2016-11-21T08:53:43.918Z,796
2016-11-21T08:54:43.963Z,816
2016-11-21T08:55:43.960Z,828
2016-11-21T08:56:43.974Z,844
2016-11-21T08:57:43.995Z,876
2016-11-21T08:58:44.027Z,932
2016-11-21T08:59:44.061Z,1000
2016-11-21T09:00:44.096Z,1060
2016-11-21T09:01:44.097Z,1132
2016-11-21T09:02:44.094Z,1160
2016-11-21T09:03:44.154Z,1156
2016-11-21T09:04:44.174Z,1184
2016-11-21T09:05:44.177Z,1256
2016-11-21T09:06:44.175Z,1300
2016-11-21T09:07:44.182Z,1292
2016-11-21T09:08:44.526Z,1296
2016-11-21T09:09:44.251Z,1236
2016-11-21T09:10:44.271Z,1204
2016-11-21T09:11:44.275Z,1188
2016-11-21T09:12:44.300Z,1200
2016-11-21T09:13:44.345Z,1220
2016-11-21T09:14:44.360Z,1252
2016-11-21T09:15:44.369Z,1288
2016-11-21T09:16:44.400Z,1332
2016-11-21T09:17:44.389Z,1364
2016-11-21T09:18:44.393Z,1384
2016-11-21T09:19:44.401Z,1344
2016-11-21T09:20:44.419Z,1292
2016-11-21T09:21:44.482Z,1208
2016-11-21T09:22:44.483Z,1112
2016-11-21T09:23:44.521Z,1056
2016-11-21T09:24:44.510Z,1024
2016-11-21T09:25:44.515Z,996
2016-11-21T09:26:44.520Z,968
2016-11-21T09:27:44.581Z,956
2016-11-21T09:28:44.571Z,940
2016-11-21T09:29:44.579Z,924
2016-11-21T09:30:44.598Z,900
2016-11-21T09:31:44.616Z,872
2016-11-21T09:32:44.642Z,868
2016-11-21T09:33:44.698Z,876
2016-11-21T09:34:44.710Z,872
2016-11-21T09:35:44.733Z,872
2016-11-21T09:36:44.717Z,872
2016-11-21T09:37:44.737Z,876
2016-11-21T09:38:44.752Z,888
2016-11-21T09:39:44.774Z,888
2016-11-21T09:40:45.099Z,888
2016-11-21T09:41:44.813Z,912
2016-11-21T09:42:44.832Z,932
2016-11-21T09:43:44.852Z,964
2016-11-21T09:44:44.864Z,968
2016-11-21T09:45:44.877Z,968
2016-11-21T09:46:44.910Z,956
2016-11-21T09:47:44.931Z,952
2016-11-21T09:48:45.249Z,960
2016-11-21T09:49:44.945Z,968
2016-11-21T09:50:44.965Z,976
2016-11-21T09:51:44.975Z,964
2016-11-21T09:52:45.003Z,944
2016-11-21T09:53:45.020Z,924
2016-11-21T09:54:45.050Z,916
2016-11-21T09:55:45.051Z,920
2016-11-21T09:56:45.084Z,928
2016-11-21T09:57:45.091Z,944
2016-11-21T09:58:45.122Z,972
2016-11-21T09:59:45.126Z,1000
2016-11-21T10:00:45.151Z,1020
2016-11-21T10:01:45.166Z,1044
2016-11-21T10:02:45.193Z,1068
2016-11-21T10:03:45.212Z,1100
2016-11-21T10:04:45.210Z,1128
2016-11-21T10:05:45.233Z,1156
2016-11-21T10:06:45.247Z,1160
2016-11-21T10:07:45.284Z,1168
2016-11-21T10:08:45.290Z,1176
2016-11-21T10:09:45.298Z,1196
2016-11-21T10:10:45.329Z,1200
2016-11-21T10:11:45.357Z,1208
2016-11-21T10:12:45.451Z,1204
2016-11-21T10:13:45.382Z,1212
2016-11-21T10:14:45.402Z,1252
2016-11-21T10:15:45.447Z,1284
2016-11-21T10:16:45.446Z,1336
2016-11-21T10:17:45.481Z,1384
2016-11-21T10:18:45.487Z,1408
2016-11-21T10:19:45.491Z,1432
2016-11-21T10:20:45.515Z,1484
2016-11-21T10:21:45.533Z,1500
2016-11-21T10:22:45.553Z,1544
2016-11-21T10:23:45.557Z,1504
2016-11-21T10:24:45.590Z,1504
2016-11-21T10:25:45.598Z,1524
2016-11-21T10:26:45.621Z,1528
2016-11-21T10:27:45.619Z,1516
2016-11-21T10:28:45.658Z,1504
2016-11-21T10:29:45.661Z,1476
2016-11-21T10:30:45.722Z,1456
2016-11-21T10:31:45.731Z,1456
2016-11-21T10:32:45.727Z,1472
2016-11-21T10:33:45.735Z,1492
2016-11-21T10:34:45.765Z,1500
2016-11-21T10:35:45.772Z,1504
2016-11-21T10:36:45.796Z,1512
2016-11-21T10:37:45.812Z,1508
2016-11-21T10:38:45.843Z,1492
2016-11-21T10:39:45.852Z,1464
2016-11-21T10:40:45.869Z,1444
2016-11-21T10:41:45.887Z,1400
2016-11-21T10:42:45.907Z,1368
2016-11-21T10:43:45.926Z,1344
2016-11-21T10:44:45.962Z,1332
2016-11-21T10:45:45.964Z,1320
2016-11-21T10:46:46.005Z,1296
2016-11-21T10:47:46.001Z,1268
2016-11-21T10:48:46.348Z,1236
2016-11-21T10:49:46.043Z,1204
2016-11-21T10:50:46.060Z,1172
2016-11-21T10:51:46.088Z,1144
2016-11-21T10:52:46.093Z,1120
2016-11-21T10:53:46.103Z,1112
2016-11-21T10:54:46.123Z,1132
2016-11-21T10:55:46.133Z,1136
2016-11-21T10:56:46.173Z,1168
2016-11-21T10:57:46.178Z,1212
2016-11-21T10:58:46.194Z,1300
2016-11-21T10:59:46.260Z,1296
2016-11-21T11:00:46.571Z,1340
2016-11-21T11:01:46.252Z,1356
2016-11-21T11:02:46.280Z,1352
2016-11-21T11:03:46.296Z,1344
2016-11-21T11:04:46.659Z,1328
2016-11-21T11:05:46.329Z,1296
2016-11-21T11:06:46.669Z,1272
2016-11-21T11:07:46.357Z,1260
2016-11-21T11:08:46.413Z,1260
2016-11-21T11:09:46.395Z,1272
2016-11-21T11:10:46.416Z,1300
2016-11-21T11:11:46.434Z,1328
2016-11-21T11:12:46.459Z,1376
2016-11-21T11:13:46.468Z,1416
2016-11-21T11:14:46.487Z,1448
2016-11-21T11:15:46.502Z,1476
2016-11-21T11:16:46.535Z,1500
2016-11-21T11:17:46.545Z,1528
2016-11-21T11:18:46.567Z,1540
2016-11-21T11:19:46.576Z,1540
2016-11-21T11:20:46.594Z,1540
2016-11-21T11:21:46.622Z,1540
2016-11-21T11:22:46.638Z,1532
2016-11-21T11:23:46.665Z,1548
2016-11-21T11:24:46.666Z,1576
2016-11-21T11:25:46.700Z,1612
2016-11-21T11:26:46.707Z,1632
2016-11-21T11:27:46.728Z,1656
2016-11-21T11:28:46.747Z,1628
2016-11-21T11:29:46.763Z,1612
2016-11-21T11:30:46.775Z,1612
2016-11-21T11:31:46.796Z,1624
2016-11-21T11:32:46.823Z,1664
2016-11-21T11:33:46.838Z,1704
2016-11-21T11:34:46.851Z,1744
2016-11-21T11:35:46.877Z,1772
2016-11-21T11:36:46.887Z,1788
2016-11-21T11:37:46.920Z,1796
2016-11-21T11:38:46.938Z,1812
2016-11-21T11:39:46.950Z,1828
2016-11-21T11:40:46.967Z,1840
2016-11-21T11:41:46.983Z,1856
2016-11-21T11:42:47.000Z,1876
2016-11-21T11:43:47.027Z,1896
2016-11-21T11:44:47.041Z,1916
2016-11-21T11:45:47.075Z,1928
2016-11-21T11:46:47.074Z,1916
2016-11-21T11:47:47.100Z,1888
2016-11-21T11:48:47.108Z,1848
2016-11-21T11:49:47.134Z,1784
2016-11-21T11:50:47.156Z,1744
2016-11-21T11:51:47.159Z,1700
2016-11-21T11:52:47.187Z,1664
2016-11-21T11:53:47.214Z,1624
2016-11-21T11:54:47.222Z,1588
2016-11-21T11:55:47.240Z,1576
2016-11-21T11:56:47.263Z,1596
2016-11-21T11:57:47.287Z,1632
2016-11-21T11:58:47.294Z,1664
2016-11-21T11:59:47.373Z,1696
2016-11-21T12:00:47.339Z,1716
2016-11-21T12:01:47.356Z,1696
2016-11-21T12:02:47.373Z,1648
2016-11-21T12:03:47.393Z,1568
2016-11-21T12:04:47.414Z,1488
2016-11-21T12:05:47.437Z,1416
2016-11-21T12:06:47.449Z,1376
2016-11-21T12:07:47.469Z,1348
2016-11-21T12:08:47.486Z,1336
2016-11-21T12:09:47.507Z,1320
2016-11-21T12:10:47.532Z,1312
2016-11-21T12:11:47.544Z,1312
2016-11-21T12:12:47.575Z,1304
2016-11-21T12:13:47.575Z,1292
2016-11-21T12:14:47.595Z,1288
2016-11-21T12:15:47.620Z,1288
2016-11-21T12:16:47.637Z,1304
2016-11-21T12:17:47.658Z,1324
2016-11-21T12:18:47.673Z,1352
2016-11-21T12:19:47.693Z,1396
2016-11-21T12:20:47.716Z,1440
2016-11-21T12:21:47.742Z,1480
2016-11-21T12:22:47.747Z,1528
2016-11-21T12:23:47.768Z,1576
2016-11-21T12:24:47.791Z,1608
2016-11-21T12:25:47.804Z,1648
2016-11-21T12:26:47.823Z,1672
2016-11-21T12:27:47.843Z,1668
2016-11-21T12:28:47.861Z,1636
2016-11-21T12:29:47.873Z,1592
2016-11-21T12:30:47.906Z,1564
2016-11-21T12:31:47.921Z,1564
2016-11-21T12:32:47.940Z,1580
2016-11-21T12:33:47.953Z,1592
2016-11-21T12:34:48.015Z,1620
2016-11-21T12:35:47.983Z,1608
2016-11-21T12:36:48.013Z,1568
2016-11-21T12:37:48.026Z,1500
2016-11-21T12:38:48.051Z,1420
2016-11-21T12:39:48.067Z,1344
2016-11-21T12:40:48.082Z,1280
2016-11-21T12:41:48.099Z,1236
2016-11-21T12:42:48.124Z,1228
2016-11-21T12:43:48.149Z,1240
2016-11-21T12:44:48.167Z,1252
2016-11-21T12:45:48.180Z,1228
2016-11-21T12:46:48.201Z,1196
2016-11-21T12:47:48.209Z,1156
2016-11-21T12:48:48.245Z,1100
2016-11-21T12:49:48.248Z,1040
2016-11-21T12:50:48.282Z,984
2016-11-21T12:51:48.301Z,940
2016-11-21T12:52:48.323Z,904
2016-11-21T12:53:48.333Z,884
2016-11-21T12:54:48.363Z,868
2016-11-21T12:55:48.375Z,852
2016-11-21T12:56:48.389Z,836
2016-11-21T12:57:48.411Z,820
2016-11-21T12:58:48.465Z,800
2016-11-21T12:59:48.449Z,804
2016-11-21T13:00:48.508Z,816
2016-11-21T13:01:48.479Z,824
2016-11-21T13:02:48.496Z,820
2016-11-21T13:03:48.515Z,824
2016-11-21T13:04:48.533Z,836
2016-11-21T13:05:48.560Z,856
2016-11-21T13:06:48.569Z,884
2016-11-21T13:07:48.592Z,924
2016-11-21T13:08:48.606Z,956
2016-11-21T13:09:48.628Z,988
2016-11-21T13:10:48.681Z,1020
2016-11-21T13:11:48.659Z,1044
2016-11-21T13:12:48.681Z,1060
2016-11-21T13:13:48.705Z,1096
2016-11-21T13:14:48.792Z,1156
2016-11-21T13:15:48.736Z,1208
2016-11-21T13:16:48.748Z,1240
2016-11-21T13:17:48.778Z,1272
2016-11-21T13:18:48.793Z,1292
2016-11-21T13:19:48.813Z,1296
2016-11-21T13:20:48.825Z,1268
2016-11-21T13:21:48.848Z,1228
2016-11-21T13:22:48.865Z,1176
2016-11-21T13:23:48.879Z,1128
2016-11-21T13:24:48.905Z,1104
2016-11-21T13:25:48.916Z,1076
2016-11-21T13:26:48.940Z,1052
2016-11-21T13:27:48.955Z,1016
2016-11-21T13:28:49.007Z,984
2016-11-21T13:29:49.032Z,968
2016-11-21T13:30:49.016Z,968
2016-11-21T13:31:49.070Z,976
2016-11-21T13:32:49.097Z,988
2016-11-21T13:33:49.122Z,1012
2016-11-21T13:34:49.136Z,1028
2016-11-21T13:35:49.134Z,1040
2016-11-21T13:36:49.137Z,1036
2016-11-21T13:37:49.128Z,1024
2016-11-21T13:38:49.160Z,996
2016-11-21T13:39:49.208Z,996
2016-11-21T13:40:49.193Z,1000
2016-11-21T13:41:49.210Z,980
2016-11-21T13:42:49.231Z,968
2016-11-21T13:43:49.249Z,968
2016-11-21T13:44:49.258Z,996
2016-11-21T13:45:49.288Z,1032
2016-11-21T13:46:49.301Z,1056
2016-11-21T13:47:49.306Z,1056
2016-11-21T13:48:49.335Z,1052
2016-11-21T13:49:49.354Z,1040
2016-11-21T13:50:49.368Z,1012
2016-11-21T13:51:49.396Z,976
2016-11-21T13:52:49.414Z,932
2016-11-21T13:53:49.419Z,892
2016-11-21T13:54:49.438Z,860
2016-11-21T13:55:49.468Z,840
2016-11-21T13:56:49.494Z,820
2016-11-21T13:57:49.505Z,804
2016-11-21T13:58:49.547Z,792
2016-11-21T13:59:49.531Z,776
2016-11-21T14:00:49.554Z,756
2016-11-21T14:01:49.573Z,732
2016-11-21T14:02:49.597Z,700
2016-11-21T14:03:49.607Z,660
2016-11-21T14:04:49.635Z,636
2016-11-21T14:05:49.647Z,620
2016-11-21T14:06:49.661Z,612
2016-11-21T14:07:49.677Z,596